Terminal Aerodrome Forecast
Issued by NWS Newport/Morehead City, NC

Home | Current Version | Previous Version | Text Only | Print | Product List | Glossary Off
Versions: 1 2 3 4 5 6 7 8 9 10 11 12 13 14 15 16

273
FTUS42 KMHX 252325
TAFEWN
TAF
KEWN 252325Z 2600/2624 19008KT P6SM SKC
     FM260300 VRB03KT P6SM SKC
     FM262100 18008KT P6SM SCT060=

USA.gov is the U.S. government's official web portal to all federal, state and local government web resources and services.